Time;durP1;ratioP1;P1;durP2;ratioP2;P2;SDS_P1;SDS_P2;PMS_P1;PMS_P2;Temp;Humidity;BMP_temperature;BMP_pressure;BME280_temperature;BME280_humidity;BME280_pressure;Samples;Min_cycle;Max_cycle;Signal;HPM_P1;HPM_P2
2022/03/25 00:00:25;;;;;;;20.15;11.97;;;5.90;99.90;;;;;;1889488;76;21067;-78
2022/03/25 00:02:53;;;;;;;21.37;12.70;;;5.90;99.90;;;;;;1889900;76;21495;-78
2022/03/25 00:05:20;;;;;;;26.57;13.20;;;5.80;99.90;;;;;;1889881;76;21507;-79
2022/03/25 00:07:53;;;;;;;21.20;12.65;;;5.80;99.90;;;;;;1889850;76;21157;-78
2022/03/25 00:10:20;;;;;;;23.80;13.00;;;5.80;99.90;;;;;;1889935;76;21192;-78
2022/03/25 00:12:48;;;;;;;21.73;12.82;;;5.80;99.90;;;;;;1889917;76;21052;-79
2022/03/25 00:15:17;;;;;;;24.92;13.50;;;5.70;99.90;;;;;;1889923;76;21130;-78
2022/03/25 00:17:44;;;;;;;23.22;12.80;;;5.70;99.90;;;;;;1889862;76;21187;-79
2022/03/25 00:20:11;;;;;;;20.95;13.20;;;5.70;99.90;;;;;;1889941;76;21047;-79
2022/03/25 00:22:40;;;;;;;19.67;13.78;;;5.60;99.90;;;;;;1890288;76;21087;-79
2022/03/25 00:25:08;;;;;;;23.25;13.15;;;5.60;99.90;;;;;;1889856;76;21514;-78
2022/03/25 00:27:35;;;;;;;17.67;13.20;;;5.60;99.90;;;;;;1889790;76;21068;-79
2022/03/25 00:30:04;;;;;;;22.58;13.38;;;5.60;99.90;;;;;;1889852;76;21486;-78
2022/03/25 00:32:31;;;;;;;19.60;13.08;;;5.50;99.90;;;;;;1889956;76;21059;-78
2022/03/25 00:34:59;;;;;;;17.15;13.25;;;5.50;99.90;;;;;;1889928;76;21436;-79
2022/03/25 00:37:26;;;;;;;23.30;12.75;;;5.40;99.90;;;;;;1877579;75;21092;-78
2022/03/25 00:39:53;;;;;;;21.42;13.62;;;5.30;99.90;;;;;;1874551;76;21421;-78
2022/03/25 00:42:21;;;;;;;23.60;13.38;;;5.30;99.90;;;;;;1874471;76;21083;-78
2022/03/25 00:44:48;;;;;;;23.50;12.20;;;5.20;99.90;;;;;;1877215;76;21224;-78
2022/03/25 00:47:16;;;;;;;23.47;13.65;;;5.20;99.90;;;;;;1874464;76;21122;-78
2022/03/25 00:49:44;;;;;;;24.87;13.70;;;5.20;99.90;;;;;;1874404;76;21069;-78
2022/03/25 00:52:11;;;;;;;21.15;12.47;;;5.10;99.90;;;;;;1874418;76;21064;-78
2022/03/25 00:54:38;;;;;;;20.20;13.20;;;5.00;99.90;;;;;;1874425;76;21092;-78
2022/03/25 00:57:07;;;;;;;19.35;13.50;;;5.00;99.90;;;;;;1874336;76;21483;-77
2022/03/25 00:59:34;;;;;;;23.05;12.70;;;4.90;99.90;;;;;;1873855;76;21052;-78
2022/03/25 01:02:02;;;;;;;15.53;11.75;;;4.90;99.90;;;;;;1874378;76;21060;-76
2022/03/25 01:04:30;;;;;;;20.35;13.60;;;4.90;99.90;;;;;;1874370;76;21119;-78
2022/03/25 01:06:58;;;;;;;22.17;14.33;;;4.80;99.90;;;;;;1874450;76;21059;-77
2022/03/25 01:09:25;;;;;;;23.47;12.58;;;4.80;99.90;;;;;;1874367;76;21061;-77
2022/03/25 01:11:53;;;;;;;20.23;13.80;;;4.80;99.90;;;;;;1874394;76;21044;-78
2022/03/25 01:14:21;;;;;;;18.48;12.33;;;4.70;99.90;;;;;;1874348;76;21193;-77
2022/03/25 01:16:48;;;;;;;19.17;12.07;;;4.70;99.90;;;;;;1874276;76;21485;-77
2022/03/25 01:19:15;;;;;;;19.87;13.53;;;4.70;99.90;;;;;;1874444;76;21055;-78
2022/03/25 01:21:43;;;;;;;22.55;13.25;;;4.70;99.90;;;;;;1874330;76;21048;-77
2022/03/25 01:24:10;;;;;;;22.85;13.20;;;4.70;99.90;;;;;;1874467;76;21239;-78
2022/03/25 01:26:39;;;;;;;25.50;13.10;;;4.60;99.90;;;;;;1874400;76;21134;-77
2022/03/25 01:29:06;;;;;;;20.68;12.88;;;4.60;99.90;;;;;;1874518;76;21094;-78
2022/03/25 01:31:34;;;;;;;25.10;13.75;;;4.60;99.90;;;;;;1874401;76;21063;-77
2022/03/25 01:34:02;;;;;;;19.20;12.93;;;4.60;99.90;;;;;;1874370;76;21126;-78
2022/03/25 01:36:30;;;;;;;25.55;13.68;;;4.50;99.90;;;;;;1874483;76;21068;-78
2022/03/25 01:38:58;;;;;;;22.00;13.30;;;4.50;99.90;;;;;;1874287;76;21084;-78
2022/03/25 01:41:25;;;;;;;26.00;14.00;;;4.50;99.90;;;;;;1874424;76;21056;-77
2022/03/25 01:43:59;;;;;;;26.65;14.25;;;4.40;99.90;;;;;;1874477;76;21060;-78
2022/03/25 01:46:26;;;;;;;24.20;13.88;;;4.40;99.90;;;;;;1874076;76;21088;-78
2022/03/25 01:48:54;;;;;;;20.52;13.98;;;4.40;99.90;;;;;;1874415;76;21125;-77
2022/03/25 01:51:27;;;;;;;18.45;13.65;;;4.30;99.90;;;;;;1874525;76;21103;-77
2022/03/25 01:53:54;;;;;;;24.87;14.05;;;4.30;99.90;;;;;;1872588;76;21037;-77
2022/03/25 01:56:23;;;;;;;21.48;14.80;;;4.20;99.90;;;;;;1871005;76;21100;-76
2022/03/25 01:58:50;;;;;;;28.87;15.05;;;4.20;99.90;;;;;;1886245;74;21337;-77
2022/03/25 02:01:18;;;;;;;26.87;14.93;;;4.20;99.90;;;;;;1889896;76;21032;-78
2022/03/25 02:03:46;;;;;;;23.27;14.78;;;4.20;99.90;;;;;;1889962;76;21083;-78
2022/03/25 02:06:13;;;;;;;23.92;14.78;;;4.10;99.90;;;;;;1889852;76;21083;-77
2022/03/25 02:08:41;;;;;;;19.45;13.70;;;4.10;99.90;;;;;;1889834;76;21091;-76
2022/03/25 02:11:09;;;;;;;21.70;13.88;;;4.10;99.90;;;;;;1890010;76;21049;-76
2022/03/25 02:13:36;;;;;;;25.65;14.43;;;4.00;99.90;;;;;;1889946;76;21173;-76
2022/03/25 02:16:04;;;;;;;29.82;14.83;;;4.00;99.90;;;;;;1890254;76;21149;-78
2022/03/25 02:18:31;;;;;;;20.05;14.05;;;4.00;99.90;;;;;;1890215;76;21463;-76
2022/03/25 02:20:59;;;;;;;22.82;14.00;;;3.90;99.90;;;;;;1889920;76;21139;-77
2022/03/25 02:23:26;;;;;;;23.77;15.40;;;3.90;99.90;;;;;;1889956;76;21051;-76
2022/03/25 02:25:54;;;;;;;25.02;15.00;;;3.80;99.90;;;;;;1889865;76;21436;-76
2022/03/25 02:28:21;;;;;;;23.30;13.75;;;3.80;99.90;;;;;;1889890;76;21184;-76
2022/03/25 02:30:49;;;;;;;21.33;14.18;;;3.70;99.90;;;;;;1884235;76;21024;-76
2022/03/25 02:33:16;;;;;;;24.18;14.18;;;3.80;99.90;;;;;;1855738;76;21087;-78
2022/03/25 02:35:49;;;;;;;21.85;14.33;;;3.80;99.90;;;;;;1889796;76;21040;-77
2022/03/25 02:38:18;;;;;;;22.22;14.55;;;3.70;99.90;;;;;;1889773;76;21036;-77
2022/03/25 02:40:46;;;;;;;22.62;14.47;;;3.60;99.90;;;;;;1890074;76;21048;-76
2022/03/25 02:43:13;;;;;;;22.87;14.23;;;3.60;99.90;;;;;;1889951;76;21063;-78
2022/03/25 02:45:41;;;;;;;22.45;14.07;;;3.60;99.90;;;;;;1855503;76;21148;-76
2022/03/25 02:48:08;;;;;;;25.92;14.80;;;3.60;99.90;;;;;;1890901;76;21447;-77
2022/03/25 02:50:36;;;;;;;21.62;13.80;;;3.60;99.90;;;;;;1889867;76;21048;-77
2022/03/25 02:53:04;;;;;;;27.30;15.08;;;3.60;99.90;;;;;;1862247;76;21024;-77
2022/03/25 02:55:31;;;;;;;24.63;14.03;;;3.40;99.90;;;;;;1892062;76;21079;-76
2022/03/25 02:57:58;;;;;;;23.60;13.68;;;3.50;99.90;;;;;;1893532;76;21028;-76
2022/03/25 03:00:26;;;;;;;23.38;14.60;;;3.50;99.90;;;;;;1891140;76;21024;-77
2022/03/25 03:02:54;;;;;;;29.90;14.47;;;3.50;99.90;;;;;;1890005;76;21040;-78
2022/03/25 03:05:22;;;;;;;21.00;14.53;;;3.40;99.90;;;;;;1890086;76;21111;-78
2022/03/25 03:07:50;;;;;;;20.60;13.48;;;3.40;99.90;;;;;;1889957;76;21071;-76
2022/03/25 03:10:18;;;;;;;25.20;14.00;;;3.30;99.90;;;;;;1889844;76;21080;-77
2022/03/25 03:12:45;;;;;;;21.70;13.85;;;3.30;99.90;;;;;;1889981;76;21487;-78
2022/03/25 03:15:15;;;;;;;21.97;14.43;;;3.30;99.90;;;;;;1889841;76;21021;-77
2022/03/25 03:17:42;;;;;;;24.20;14.43;;;3.20;99.90;;;;;;1890079;74;21177;-78
2022/03/25 03:20:10;;;;;;;24.47;14.83;;;3.20;99.90;;;;;;1884243;76;21427;-78
2022/03/25 03:22:38;;;;;;;25.43;15.45;;;3.20;99.90;;;;;;1889966;76;21052;-78
2022/03/25 03:25:06;;;;;;;21.40;14.15;;;3.10;99.90;;;;;;1889792;76;21075;-78
2022/03/25 03:27:33;;;;;;;23.20;15.45;;;3.10;99.90;;;;;;1889774;76;21047;-78
2022/03/25 03:30:00;;;;;;;24.27;14.87;;;3.10;99.90;;;;;;1889993;76;21020;-77
2022/03/25 03:32:28;;;;;;;21.90;14.38;;;3.10;99.90;;;;;;1889810;76;21145;-77
2022/03/25 03:34:55;;;;;;;22.75;15.40;;;3.10;99.90;;;;;;1890003;76;21063;-77
2022/03/25 03:37:23;;;;;;;25.10;14.45;;;3.10;99.90;;;;;;1890007;76;21047;-76
2022/03/25 03:39:50;;;;;;;28.65;14.95;;;3.00;99.90;;;;;;1889809;76;21445;-77
2022/03/25 03:42:17;;;;;;;25.88;15.10;;;3.00;99.90;;;;;;1889940;76;21036;-77
2022/03/25 03:44:45;;;;;;;22.17;14.87;;;3.10;99.90;;;;;;1889860;76;21191;-76
2022/03/25 03:47:12;;;;;;;24.72;15.70;;;3.10;99.90;;;;;;1889907;76;21032;-77
2022/03/25 03:49:40;;;;;;;25.35;14.87;;;3.00;99.90;;;;;;1889898;76;21125;-76
2022/03/25 03:52:09;;;;;;;27.32;15.80;;;3.00;99.90;;;;;;1889830;76;21130;-76
2022/03/25 03:54:38;;;;;;;21.15;14.60;;;2.90;99.90;;;;;;1889925;76;21075;-77
2022/03/25 03:57:08;;;;;;;24.20;14.85;;;2.90;99.90;;;;;;1889731;76;21404;-76
2022/03/25 03:59:36;;;;;;;23.63;14.80;;;2.90;99.90;;;;;;1890068;74;21121;-76
2022/03/25 04:02:03;;;;;;;28.65;14.65;;;2.80;99.90;;;;;;1889907;76;21072;-77
2022/03/25 04:04:31;;;;;;;25.68;14.98;;;2.80;99.90;;;;;;1889958;76;21043;-75
2022/03/25 04:06:58;;;;;;;22.87;14.43;;;2.70;99.90;;;;;;1889725;76;21121;-76
2022/03/25 04:09:26;;;;;;;26.73;15.58;;;2.70;99.90;;;;;;1889830;76;21091;-77
2022/03/25 04:11:53;;;;;;;23.75;15.40;;;2.70;99.90;;;;;;1882050;76;21037;-76
2022/03/25 04:14:22;;;;;;;30.52;15.45;;;2.70;99.90;;;;;;1889845;76;21060;-76
2022/03/25 04:16:49;;;;;;;19.17;14.28;;;2.60;99.90;;;;;;1889901;76;21059;-76
2022/03/25 04:19:16;;;;;;;31.55;16.07;;;2.70;99.90;;;;;;1889851;76;21071;-76
2022/03/25 04:21:43;;;;;;;26.60;14.38;;;2.70;99.90;;;;;;1889844;76;21125;-76
2022/03/25 04:24:11;;;;;;;24.75;15.48;;;2.60;99.90;;;;;;1889862;76;21152;-76
2022/03/25 04:26:38;;;;;;;22.27;14.50;;;2.60;99.90;;;;;;1889731;76;21040;-76
2022/03/25 04:29:06;;;;;;;23.18;15.65;;;2.50;99.90;;;;;;1889796;76;21565;-77
2022/03/25 04:31:33;;;;;;;29.10;14.40;;;2.50;99.90;;;;;;1889797;76;21484;-77
2022/03/25 04:34:01;;;;;;;26.52;14.83;;;2.40;99.90;;;;;;1889820;76;21056;-76
2022/03/25 04:36:28;;;;;;;26.52;15.05;;;2.40;99.90;;;;;;1889706;76;21474;-76
2022/03/25 04:38:57;;;;;;;20.65;14.35;;;2.40;99.90;;;;;;1889702;76;21051;-76
2022/03/25 04:41:24;;;;;;;18.85;13.80;;;2.40;99.90;;;;;;1889683;76;21117;-76
2022/03/25 04:43:52;;;;;;;39.92;16.57;;;2.30;99.90;;;;;;1889730;76;21095;-77
2022/03/25 04:46:19;;;;;;;23.95;14.93;;;2.30;99.90;;;;;;1889730;76;21052;-77
2022/03/25 04:48:46;;;;;;;21.65;14.98;;;2.20;99.90;;;;;;1890057;76;21133;-77
2022/03/25 04:51:13;;;;;;;22.22;14.85;;;2.30;99.90;;;;;;1889876;76;21118;-76
2022/03/25 04:53:41;;;;;;;23.42;14.55;;;2.20;99.90;;;;;;1889807;76;21520;-76
2022/03/25 04:56:10;;;;;;;26.62;15.08;;;2.30;99.90;;;;;;1889919;76;21043;-77
2022/03/25 04:58:37;;;;;;;28.50;14.43;;;2.30;99.90;;;;;;1889719;76;21485;-76
2022/03/25 05:01:05;;;;;;;26.30;14.73;;;2.30;99.90;;;;;;1889923;76;21135;-77
2022/03/25 05:03:33;;;;;;;23.95;14.73;;;2.30;99.90;;;;;;1891379;76;21134;-76
2022/03/25 05:06:00;;;;;;;22.40;14.10;;;2.30;99.90;;;;;;1891447;76;21024;-77
2022/03/25 05:08:27;;;;;;;21.02;14.15;;;2.30;99.90;;;;;;1891608;76;21129;-76
2022/03/25 05:10:56;;;;;;;31.90;14.98;;;2.30;99.90;;;;;;1891373;76;21210;-77
2022/03/25 05:13:25;;;;;;;21.90;14.85;;;2.30;99.90;;;;;;1891940;76;21079;-77
2022/03/25 05:15:52;;;;;;;21.23;14.60;;;2.20;99.90;;;;;;1892775;76;21100;-77
2022/03/25 05:18:19;;;;;;;26.10;16.30;;;2.20;99.90;;;;;;1891208;76;21125;-77
2022/03/25 05:20:47;;;;;;;25.00;15.28;;;2.10;99.90;;;;;;1890094;76;21067;-76
2022/03/25 05:23:14;;;;;;;27.07;15.50;;;2.10;99.90;;;;;;1890078;76;21029;-77
2022/03/25 05:25:41;;;;;;;21.60;15.48;;;2.10;99.90;;;;;;1889957;76;21160;-75
2022/03/25 05:28:09;;;;;;;22.73;15.90;;;2.10;99.90;;;;;;1890132;76;21191;-81
2022/03/25 05:30:36;;;;;;;25.05;15.63;;;2.10;99.90;;;;;;1890214;76;21055;-78
2022/03/25 05:33:05;;;;;;;21.25;14.50;;;2.10;99.90;;;;;;1890233;76;21055;-77
2022/03/25 05:35:32;;;;;;;30.23;16.75;;;2.10;99.90;;;;;;1883677;76;21138;-77
2022/03/25 05:38:00;;;;;;;26.57;14.60;;;2.10;99.90;;;;;;1889799;76;21039;-76
2022/03/25 05:40:27;;;;;;;30.43;15.85;;;2.10;99.90;;;;;;1889864;76;21541;-76
2022/03/25 05:42:54;;;;;;;39.13;16.62;;;2.10;99.90;;;;;;1889971;76;21029;-76
2022/03/25 05:45:22;;;;;;;25.52;16.10;;;2.20;99.90;;;;;;1889881;76;21521;-77
2022/03/25 05:47:50;;;;;;;22.65;15.63;;;2.20;99.90;;;;;;1889800;76;21154;-74
2022/03/25 05:50:18;;;;;;;23.07;15.10;;;2.20;99.90;;;;;;1889796;76;21075;-76
2022/03/25 05:52:45;;;;;;;21.30;14.83;;;2.30;99.90;;;;;;1889902;76;21072;-75
2022/03/25 05:55:16;;;;;;;25.15;15.83;;;2.30;99.90;;;;;;1889785;76;21091;-75
2022/03/25 05:57:44;;;;;;;22.87;16.10;;;2.30;99.90;;;;;;1889833;76;21079;-76
2022/03/25 06:00:13;;;;;;;23.27;15.28;;;2.40;99.90;;;;;;1889908;76;21055;-76
2022/03/25 06:02:43;;;;;;;27.57;15.27;;;2.40;99.90;;;;;;1890125;76;21112;-76
2022/03/25 06:05:11;;;;;;;24.57;15.25;;;2.50;99.90;;;;;;1889101;76;21121;-76
2022/03/25 06:07:39;;;;;;;26.20;16.35;;;2.50;99.90;;;;;;1889879;76;21063;-76
2022/03/25 06:10:07;;;;;;;24.02;15.08;;;2.50;99.90;;;;;;1890067;76;21056;-76
2022/03/25 06:12:35;;;;;;;25.65;16.12;;;2.70;99.90;;;;;;1889516;76;21064;-77
2022/03/25 06:15:02;;;;;;;20.75;16.10;;;2.70;99.90;;;;;;1890017;76;21574;-77
2022/03/25 06:17:30;;;;;;;25.10;16.42;;;2.70;99.90;;;;;;1882446;76;21476;-77
2022/03/25 06:19:58;;;;;;;35.10;15.72;;;2.70;99.90;;;;;;1889822;76;21503;-78
2022/03/25 06:22:25;;;;;;;26.20;16.20;;;2.80;99.90;;;;;;1889899;76;21048;-77
2022/03/25 06:24:53;;;;;;;30.85;15.98;;;2.80;99.90;;;;;;1889789;76;21110;-77
2022/03/25 06:27:21;;;;;;;27.13;15.25;;;3.00;99.90;;;;;;1889840;76;21064;-78
2022/03/25 06:29:48;;;;;;;25.68;15.18;;;3.00;99.90;;;;;;1889860;76;21121;-78
2022/03/25 06:32:16;;;;;;;27.45;16.20;;;3.10;99.90;;;;;;1889870;76;21047;-77
2022/03/25 06:34:44;;;;;;;32.15;17.15;;;3.20;99.90;;;;;;1889823;76;21156;-75
2022/03/25 06:37:11;;;;;;;23.55;16.32;;;3.30;99.90;;;;;;1889897;76;21121;-74
2022/03/25 06:39:38;;;;;;;24.07;15.03;;;3.30;99.90;;;;;;1889829;76;21048;-74
2022/03/25 06:42:07;;;;;;;25.10;16.60;;;3.40;99.90;;;;;;1889993;76;21447;-73
2022/03/25 06:44:34;;;;;;;27.00;15.78;;;3.50;99.90;;;;;;1889923;76;21137;-75
2022/03/25 06:47:01;;;;;;;27.00;14.58;;;3.50;99.90;;;;;;1889964;76;21129;-74
2022/03/25 06:49:30;;;;;;;24.40;15.93;;;3.70;99.90;;;;;;1889874;76;21060;-75
2022/03/25 06:51:58;;;;;;;28.75;15.83;;;3.70;99.90;;;;;;1889902;76;21146;-74
2022/03/25 06:54:26;;;;;;;26.52;15.20;;;3.90;99.90;;;;;;1889792;76;21059;-74
2022/03/25 06:56:53;;;;;;;27.58;16.52;;;4.10;99.90;;;;;;1884173;76;21119;-74
2022/03/25 06:59:21;;;;;;;38.28;16.65;;;4.20;99.90;;;;;;1889976;76;21129;-74
2022/03/25 07:01:48;;;;;;;31.65;17.67;;;4.40;99.90;;;;;;1889954;76;21503;-74
2022/03/25 07:04:16;;;;;;;37.83;17.60;;;4.40;99.90;;;;;;1889836;76;21125;-75
2022/03/25 07:06:44;;;;;;;31.85;16.42;;;4.50;99.90;;;;;;1890076;76;21497;-76
2022/03/25 07:09:11;;;;;;;35.48;15.90;;;4.70;99.90;;;;;;1889830;76;21072;-75
2022/03/25 07:11:39;;;;;;;34.33;16.62;;;4.80;99.90;;;;;;1889811;76;21113;-75
2022/03/25 07:14:08;;;;;;;35.33;16.82;;;4.90;99.90;;;;;;1889860;76;21044;-76
2022/03/25 07:16:37;;;;;;;41.83;17.12;;;5.10;99.90;;;;;;1889852;76;21168;-76
2022/03/25 07:19:04;;;;;;;38.25;16.93;;;5.10;99.90;;;;;;1889830;76;21091;-74
2022/03/25 07:21:33;;;;;;;45.52;17.52;;;5.20;99.90;;;;;;1889858;76;21553;-75
2022/03/25 07:24:00;;;;;;;44.13;15.68;;;5.20;99.90;;;;;;1889886;76;21046;-74
2022/03/25 07:26:28;;;;;;;45.60;16.45;;;5.40;99.90;;;;;;1889918;76;21060;-75
2022/03/25 07:28:56;;;;;;;43.58;17.62;;;5.60;99.90;;;;;;1858970;76;21114;-75
2022/03/25 07:31:28;;;;;;;39.18;17.60;;;5.60;99.90;;;;;;1889778;76;21133;-74
2022/03/25 07:33:59;;;;;;;43.35;17.10;;;5.80;99.90;;;;;;1889849;76;21467;-75
2022/03/25 07:36:26;;;;;;;28.25;16.42;;;5.90;99.90;;;;;;1889873;76;21059;-74
2022/03/25 07:38:53;;;;;;;37.65;16.48;;;5.90;99.90;;;;;;1889811;76;21060;-73
2022/03/25 07:41:21;;;;;;;31.80;16.65;;;6.00;99.90;;;;;;1889858;76;21133;-75
2022/03/25 07:43:48;;;;;;;26.62;16.57;;;6.00;99.90;;;;;;1889860;76;21036;-73
2022/03/25 07:46:16;;;;;;;33.23;17.17;;;6.20;99.90;;;;;;1889852;76;21067;-75
2022/03/25 07:48:43;;;;;;;32.10;17.20;;;6.30;99.90;;;;;;1890069;76;21211;-75
2022/03/25 07:51:11;;;;;;;25.23;15.98;;;6.60;99.90;;;;;;1889973;76;21210;-75
2022/03/25 07:54:00;;;;;;;33.70;17.00;;;6.70;99.90;;;;;;1889967;76;21134;-75
2022/03/25 07:56:27;;;;;;;25.75;15.72;;;6.90;99.90;;;;;;1927316;74;21030;-75
2022/03/25 07:58:54;;;;;;;29.42;16.57;;;7.10;99.90;;;;;;1927404;74;21037;-76
2022/03/25 08:01:22;;;;;;;27.00;17.10;;;7.20;99.90;;;;;;1927482;74;21133;-76
2022/03/25 08:03:49;;;;;;;28.12;17.27;;;7.30;99.90;;;;;;1927496;74;21136;-76
2022/03/25 08:06:18;;;;;;;30.92;17.23;;;7.50;99.90;;;;;;1927565;74;21006;-75
2022/03/25 08:08:47;;;;;;;35.63;17.45;;;7.70;99.90;;;;;;1927521;74;21176;-74
2022/03/25 08:11:18;;;;;;;26.68;17.70;;;8.00;99.90;;;;;;1927442;74;21122;-74
2022/03/25 08:13:43;;;;;;;29.80;16.60;;;8.20;99.90;;;;;;1927371;74;21139;-73
2022/03/25 08:16:11;;;;;;;32.75;17.32;;;8.50;99.90;;;;;;1928396;74;21048;-75
2022/03/25 08:18:38;;;;;;;38.55;18.00;;;8.50;99.90;;;;;;1929020;74;21024;-74
2022/03/25 08:21:06;;;;;;;30.02;17.37;;;8.80;99.90;;;;;;1929843;74;21033;-76
2022/03/25 08:29:04;;;;;;;31.97;16.87;;;9.40;99.90;;;;;;1898627;74;21140;-74
2022/03/25 08:31:34;;;;;;;32.95;18.20;;;9.80;99.90;;;;;;1931101;74;21081;-75
2022/03/25 08:34:00;;;;;;;28.38;17.65;;;10.00;99.90;;;;;;1927940;74;21101;-75
2022/03/25 08:36:28;;;;;;;29.52;18.07;;;9.80;99.90;;;;;;1927910;74;21181;-74
2022/03/25 08:38:55;;;;;;;31.42;17.75;;;9.80;99.90;;;;;;1889914;74;21041;-76
2022/03/25 08:41:23;;;;;;;28.32;17.02;;;10.20;99.90;;;;;;1927912;74;21013;-74
2022/03/25 08:43:50;;;;;;;30.77;17.15;;;10.40;99.90;;;;;;1927697;74;21426;-74
2022/03/25 08:46:20;;;;;;;25.70;16.52;;;10.80;99.90;;;;;;1927411;74;21126;-75
2022/03/25 08:48:47;;;;;;;24.37;16.17;;;10.90;99.90;;;;;;1927519;74;21506;-74
2022/03/25 08:51:15;;;;;;;30.65;17.55;;;10.60;99.90;;;;;;1927518;74;21098;-75
2022/03/25 08:53:44;;;;;;;30.52;17.50;;;11.00;99.90;;;;;;1927296;74;21474;-74
2022/03/25 08:56:12;;;;;;;30.48;17.30;;;11.70;99.90;;;;;;1927369;74;21565;-75
2022/03/25 08:58:41;;;;;;;35.05;18.75;;;11.80;99.90;;;;;;1927497;74;21118;-75
2022/03/25 09:01:09;;;;;;;35.75;17.27;;;12.20;99.90;;;;;;1927459;74;21425;-75
2022/03/25 09:03:37;;;;;;;34.15;19.17;;;12.10;99.90;;;;;;1927448;74;21060;-74
2022/03/25 09:06:04;;;;;;;30.88;18.40;;;12.10;99.90;;;;;;1927391;74;21017;-74
2022/03/25 09:08:32;;;;;;;34.65;18.80;;;12.90;99.90;;;;;;1927350;74;21029;-75
2022/03/25 09:10:59;;;;;;;38.40;18.45;;;13.10;99.90;;;;;;1927553;74;21032;-75
2022/03/25 09:13:26;;;;;;;38.58;18.98;;;13.00;99.90;;;;;;1927298;74;21429;-74
2022/03/25 09:15:54;;;;;;;33.20;18.57;;;13.40;99.90;;;;;;1927186;74;21020;-75
2022/03/25 09:18:21;;;;;;;27.10;18.75;;;13.40;99.90;;;;;;1927422;74;21456;-75
2022/03/25 09:20:49;;;;;;;34.65;18.65;;;13.10;99.90;;;;;;1927214;74;21060;-75
2022/03/25 09:23:17;;;;;;;32.58;18.67;;;13.50;99.90;;;;;;1927420;74;21040;-75
2022/03/25 09:25:44;;;;;;;32.17;19.42;;;13.50;99.90;;;;;;1927382;74;21146;-75
2022/03/25 09:28:12;;;;;;;38.58;20.40;;;13.60;99.90;;;;;;1927389;74;21049;-75
2022/03/25 09:30:39;;;;;;;38.00;21.25;;;13.70;99.80;;;;;;1927202;74;21106;-75
2022/03/25 09:33:07;;;;;;;36.77;20.60;;;13.90;98.70;;;;;;1927438;74;21049;-74
2022/03/25 09:35:45;;;;;;;41.13;20.68;;;14.40;98.00;;;;;;1927256;74;21068;-74
2022/03/25 09:38:15;;;;;;;34.05;19.65;;;13.80;97.90;;;;;;1926783;74;21142;-74
2022/03/25 09:40:43;;;;;;;31.30;20.20;;;13.70;98.40;;;;;;1923898;74;21069;-75
2022/03/25 09:43:11;;;;;;;34.55;20.50;;;14.20;98.00;;;;;;1927089;74;21114;-74
2022/03/25 09:45:39;;;;;;;40.12;20.85;;;14.50;98.10;;;;;;1888995;74;21061;-73
2022/03/25 09:48:07;;;;;;;28.15;19.50;;;15.00;95.50;;;;;;1927344;74;21036;-75
2022/03/25 09:50:37;;;;;;;38.90;21.27;;;15.60;95.00;;;;;;1927233;74;21119;-74
2022/03/25 09:53:03;;;;;;;34.25;21.33;;;16.00;92.30;;;;;;1926998;74;21539;-75
2022/03/25 09:55:31;;;;;;;29.37;20.15;;;16.30;91.40;;;;;;1929068;74;21026;-75
2022/03/25 09:57:58;;;;;;;46.58;20.88;;;16.30;91.00;;;;;;1927388;74;21065;-75
2022/03/25 10:00:26;;;;;;;40.73;20.60;;;15.80;91.50;;;;;;1927361;74;21098;-74
2022/03/25 10:02:53;;;;;;;38.80;21.25;;;16.70;90.10;;;;;;1927579;74;21137;-74
2022/03/25 10:05:22;;;;;;;33.73;20.55;;;17.00;86.20;;;;;;1927642;74;21265;-75
2022/03/25 10:07:51;;;;;;;43.25;22.15;;;17.10;86.40;;;;;;1927677;74;21044;-75
2022/03/25 10:10:19;;;;;;;50.78;21.52;;;17.00;83.90;;;;;;1927703;74;21029;-74
2022/03/25 10:12:48;;;;;;;35.50;21.75;;;16.20;85.40;;;;;;1927544;74;21457;-75
2022/03/25 10:15:25;;;;;;;40.58;21.45;;;16.60;85.70;;;;;;1927737;74;21041;-75
2022/03/25 10:17:56;;;;;;;35.17;21.07;;;16.80;84.10;;;;;;1927793;74;21107;-76
2022/03/25 10:20:33;;;;;;;29.63;20.17;;;17.00;81.30;;;;;;1927841;74;21134;-75
2022/03/25 10:23:11;;;;;;;35.60;21.50;;;17.50;81.40;;;;;;1927532;74;21090;-75
2022/03/25 10:25:50;;;;;;;33.92;20.95;;;18.00;78.80;;;;;;1927613;74;21140;-75
2022/03/25 10:28:21;;;;;;;44.03;21.87;;;17.70;78.50;;;;;;1928014;74;21071;-77
2022/03/25 10:30:51;;;;;;;43.08;22.13;;;17.70;79.40;;;;;;1927968;74;21056;-75
2022/03/25 10:33:27;;;;;;;44.58;20.65;;;17.10;80.50;;;;;;1928035;74;21098;-76
2022/03/25 10:36:07;;;;;;;32.35;20.95;;;17.30;81.30;;;;;;1917520;74;21188;-75
2022/03/25 10:39:06;;;;;;;44.95;23.27;;;17.20;82.10;;;;;;1929876;74;21121;-74
2022/03/25 10:41:41;;;;;;;35.28;20.25;;;17.30;80.70;;;;;;1928327;74;21155;-74
2022/03/25 10:44:10;;;;;;;40.08;21.62;;;18.30;77.50;;;;;;1930144;74;21024;-74
2022/03/25 10:46:41;;;;;;;29.27;20.50;;;18.90;75.50;;;;;;1930519;74;21072;-75
2022/03/25 10:49:12;;;;;;;37.28;21.73;;;19.10;73.10;;;;;;1930724;74;20998;-75
2022/03/25 10:51:42;;;;;;;37.63;21.25;;;19.10;72.50;;;;;;1930615;74;21104;-75
2022/03/25 10:54:11;;;;;;;40.28;20.40;;;18.80;73.60;;;;;;1928970;74;21040;-75
2022/03/25 10:56:49;;;;;;;38.45;21.30;;;19.00;73.50;;;;;;1929981;74;21102;-75
2022/03/25 10:59:26;;;;;;;34.08;20.35;;;19.50;70.60;;;;;;1927949;74;21033;-74
2022/03/25 11:01:55;;;;;;;38.00;21.12;;;19.50;70.90;;;;;;1927735;74;21180;-75
2022/03/25 11:04:25;;;;;;;32.70;20.73;;;19.50;69.70;;;;;;1927995;74;21137;-76
2022/03/25 11:06:56;;;;;;;36.63;20.65;;;19.30;70.60;;;;;;1927970;74;21131;-75
2022/03/25 11:09:27;;;;;;;39.18;21.95;;;19.00;70.70;;;;;;1927769;74;21077;-78
2022/03/25 11:11:58;;;;;;;39.15;22.10;;;19.20;70.10;;;;;;1895427;74;21487;-76
2022/03/25 11:14:25;;;;;;;39.67;20.57;;;19.60;69.60;;;;;;1928368;73;21232;-75
2022/03/25 11:17:00;;;;;;;42.88;20.02;;;19.70;69.30;;;;;;1927575;74;21072;-75
2022/03/25 11:19:27;;;;;;;41.20;21.70;;;20.00;66.80;;;;;;1927741;74;21472;-78
2022/03/25 11:21:55;;;;;;;33.60;21.40;;;20.30;65.80;;;;;;1927803;74;21060;-76
2022/03/25 11:24:30;;;;;;;36.73;20.43;;;20.50;65.30;;;;;;1927723;74;21104;-75
2022/03/25 11:26:57;;;;;;;34.40;20.62;;;20.80;63.70;;;;;;1927909;74;21081;-75
2022/03/25 11:29:27;;;;;;;32.00;20.55;;;20.30;62.90;;;;;;1927685;74;21106;-75
2022/03/25 11:32:14;;;;;;;37.55;20.50;;;19.90;64.20;;;;;;1928052;74;21037;-75
2022/03/25 11:34:43;;;;;;;35.92;20.17;;;20.40;60.90;;;;;;1937435;74;21012;-77
2022/03/25 11:37:28;;;;;;;30.95;19.50;;;20.20;59.90;;;;;;1929914;74;21508;-77
2022/03/25 11:40:22;;;;;;;35.68;19.30;;;20.70;60.10;;;;;;1927485;74;21080;-76
2022/03/25 11:42:59;;;;;;;32.28;19.10;;;21.50;57.90;;;;;;1932341;74;21113;-77
2022/03/25 11:45:36;;;;;;;27.93;18.48;;;21.50;56.10;;;;;;1927667;74;21457;-76
2022/03/25 11:48:17;;;;;;;35.30;19.00;;;21.50;56.20;;;;;;1926539;73;21134;-76
2022/03/25 11:50:45;;;;;;;28.07;18.73;;;22.20;54.20;;;;;;1922594;74;21539;-77
2022/03/25 11:53:15;;;;;;;29.63;17.67;;;22.20;53.40;;;;;;1927640;74;21141;-78
2022/03/25 11:56:02;;;;;;;27.02;17.87;;;22.50;52.80;;;;;;1927793;74;21106;-78
2022/03/25 11:58:31;;;;;;;35.17;18.95;;;22.80;52.20;;;;;;1927893;74;21091;-77
2022/03/25 12:01:06;;;;;;;28.60;18.10;;;22.70;50.80;;;;;;1927809;74;21461;-77
2022/03/25 12:03:55;;;;;;;27.32;16.65;;;22.10;50.80;;;;;;1925290;74;21025;-74
2022/03/25 12:06:27;;;;;;;22.77;15.85;;;21.30;50.60;;;;;;1927611;74;21048;-76
2022/03/25 12:09:15;;;;;;;30.95;16.67;;;21.80;49.60;;;;;;1927747;74;21102;-76
2022/03/25 12:11:55;;;;;;;20.92;13.98;;;22.20;48.00;;;;;;1927862;74;21056;-79
2022/03/25 12:14:31;;;;;;;20.35;14.83;;;22.10;47.50;;;;;;1928003;74;21133;-76
2022/03/25 12:16:57;;;;;;;27.27;17.95;;;22.90;45.50;;;;;;1916076;74;21512;-79
2022/03/25 12:19:38;;;;;;;20.10;15.00;;;22.70;45.30;;;;;;1927500;74;21126;-79
2022/03/25 12:22:02;;;;;;;28.32;15.32;;;23.50;45.20;;;;;;1926143;72;21060;-79
2022/03/25 12:24:31;;;;;;;28.92;14.40;;;23.00;44.80;;;;;;1924859;74;21033;-79
2022/03/25 12:27:02;;;;;;;24.47;14.73;;;23.50;44.60;;;;;;1927439;74;21522;-78
2022/03/25 12:29:33;;;;;;;19.25;13.95;;;23.10;44.10;;;;;;1927677;74;21118;-78
2022/03/25 12:32:08;;;;;;;31.23;14.05;;;23.60;42.30;;;;;;1927638;74;21016;-78
2022/03/25 12:34:53;;;;;;;20.00;13.55;;;23.70;42.70;;;;;;1927570;74;21114;-77
2022/03/25 12:37:38;;;;;;;22.52;13.78;;;24.20;42.00;;;;;;1927517;74;21424;-79
2022/03/25 12:40:25;;;;;;;21.02;13.70;;;24.80;40.40;;;;;;1927445;74;21420;-77
2022/03/25 12:43:00;;;;;;;19.27;14.40;;;23.70;41.50;;;;;;1927462;74;21106;-76
2022/03/25 12:45:34;;;;;;;20.85;14.43;;;23.10;42.30;;;;;;1927295;74;21180;-77
2022/03/25 12:48:12;;;;;;;21.55;14.40;;;23.90;40.30;;;;;;1927578;74;21056;-77